Time;durP1;ratioP1;P1;durP2;ratioP2;P2;SDS_P1;SDS_P2;PMS_P1;PMS_P2;Temp;Humidity;BMP_temperature;BMP_pressure;BME280_temperature;BME280_humidity;BME280_pressure;Samples;Min_cycle;Max_cycle;Signal;HPM_P1;HPM_P2
2021/05/16 00:01:48;;;;;;;16.70;5.28;;;13.00;99.90;;;;;;4969887;28;20034;-76
2021/05/16 00:04:14;;;;;;;18.48;4.35;;;13.00;99.90;;;;;;4981264;28;20026;-76
2021/05/16 00:06:40;;;;;;;19.88;4.80;;;13.00;99.90;;;;;;4973594;28;20196;-73
2021/05/16 00:09:05;;;;;;;16.75;4.45;;;13.00;99.90;;;;;;4974292;28;20041;-76
2021/05/16 00:11:31;;;;;;;21.85;4.68;;;13.10;99.90;;;;;;4972052;28;20153;-75
2021/05/16 00:13:57;;;;;;;20.48;4.60;;;13.10;99.90;;;;;;4932151;28;20030;-75
2021/05/16 00:16:23;;;;;;;18.00;3.85;;;13.10;99.90;;;;;;4962966;28;20034;-78
2021/05/16 00:18:48;;;;;;;18.92;4.47;;;13.00;99.90;;;;;;4967513;28;20070;-78
2021/05/16 00:21:14;;;;;;;22.83;5.03;;;12.90;99.90;;;;;;4966721;28;20047;-73
2021/05/16 00:23:40;;;;;;;25.52;4.78;;;12.90;99.90;;;;;;4973713;28;20038;-74
2021/05/16 00:26:05;;;;;;;22.10;4.40;;;12.90;99.90;;;;;;4975658;28;20030;-71
2021/05/16 00:28:31;;;;;;;17.50;3.85;;;12.80;99.90;;;;;;4974816;28;20034;-74
2021/05/16 00:30:58;;;;;;;18.88;4.18;;;12.80;99.90;;;;;;4972940;28;20045;-76
2021/05/16 00:33:23;;;;;;;22.17;5.45;;;12.80;99.90;;;;;;4972859;28;20379;-77
2021/05/16 00:35:49;;;;;;;21.63;4.00;;;12.90;99.90;;;;;;4975919;28;20027;-74
2021/05/16 00:38:15;;;;;;;18.15;4.90;;;12.80;99.90;;;;;;4974623;28;20035;-75
2021/05/16 00:40:40;;;;;;;21.40;4.85;;;12.90;99.90;;;;;;4973492;28;20375;-76
2021/05/16 00:43:06;;;;;;;17.20;4.47;;;12.80;99.90;;;;;;4968429;28;20078;-75
2021/05/16 00:45:32;;;;;;;29.90;5.88;;;12.80;99.90;;;;;;4962461;28;20027;-73
2021/05/16 00:48:04;;;;;;;18.85;4.07;;;12.90;99.90;;;;;;4979672;28;20029;-72
2021/05/16 00:50:34;;;;;;;32.88;5.60;;;12.80;99.90;;;;;;4974785;28;20046;-75
2021/05/16 00:53:00;;;;;;;29.77;5.97;;;12.80;99.90;;;;;;4974635;28;20031;-73
2021/05/16 00:55:26;;;;;;;20.52;5.07;;;12.80;99.90;;;;;;4970733;28;20064;-73
2021/05/16 00:57:51;;;;;;;20.45;5.00;;;12.80;99.90;;;;;;4979804;28;20026;-75
2021/05/16 01:00:22;;;;;;;22.52;5.07;;;12.70;99.90;;;;;;4974151;28;20074;-74
2021/05/16 01:02:48;;;;;;;27.02;5.55;;;12.60;99.90;;;;;;4975986;28;20365;-72
2021/05/16 01:05:15;;;;;;;27.45;5.22;;;12.60;99.90;;;;;;4974695;28;20089;-74
2021/05/16 01:07:41;;;;;;;23.38;5.47;;;12.50;99.90;;;;;;4975657;28;20029;-72
2021/05/16 01:10:10;;;;;;;30.08;5.85;;;12.50;99.90;;;;;;4976230;28;20026;-72
2021/05/16 01:12:42;;;;;;;25.95;5.28;;;12.40;99.90;;;;;;4971696;28;20388;-73
2021/05/16 01:15:11;;;;;;;22.50;5.95;;;12.30;99.90;;;;;;4962648;28;20020;-74
2021/05/16 01:17:37;;;;;;;26.15;6.05;;;12.30;99.90;;;;;;4963172;28;20066;-72
2021/05/16 01:20:07;;;;;;;18.88;5.40;;;12.30;99.90;;;;;;4970460;28;20027;-71
2021/05/16 01:22:32;;;;;;;24.90;5.47;;;12.20;99.90;;;;;;4975424;28;20026;-73
2021/05/16 01:24:58;;;;;;;22.52;5.43;;;12.20;99.90;;;;;;4975057;28;20022;-71
2021/05/16 01:27:24;;;;;;;26.60;6.00;;;12.20;99.90;;;;;;4975215;28;20029;-73
2021/05/16 01:29:49;;;;;;;23.65;5.30;;;12.10;99.90;;;;;;4977104;28;20026;-74
2021/05/16 01:32:20;;;;;;;30.48;5.85;;;12.10;99.90;;;;;;4973252;28;20031;-73
2021/05/16 01:34:47;;;;;;;27.58;6.13;;;12.10;99.90;;;;;;4974159;28;20065;-74
2021/05/16 01:37:13;;;;;;;27.40;6.53;;;12.00;99.90;;;;;;4975385;28;20039;-74
2021/05/16 01:39:40;;;;;;;22.52;5.00;;;12.00;99.90;;;;;;4975677;28;20139;-73
2021/05/16 01:42:07;;;;;;;29.13;7.00;;;12.00;99.90;;;;;;4970859;28;20372;-73
2021/05/16 01:44:33;;;;;;;27.02;5.95;;;11.90;99.90;;;;;;4974268;28;20483;-74
2021/05/16 01:47:02;;;;;;;27.10;5.45;;;11.80;99.90;;;;;;4974221;28;20034;-73
2021/05/16 01:49:34;;;;;;;24.25;5.93;;;11.80;99.90;;;;;;4974473;28;20042;-73
2021/05/16 01:52:00;;;;;;;19.77;6.72;;;11.80;99.90;;;;;;4972917;28;20062;-74
2021/05/16 01:54:26;;;;;;;22.95;5.57;;;11.70;99.90;;;;;;4974244;28;20067;-74
2021/05/16 01:56:52;;;;;;;27.60;6.10;;;11.70;99.90;;;;;;4965861;28;20038;-74
2021/05/16 01:59:18;;;;;;;25.95;5.78;;;11.70;99.90;;;;;;4967492;28;20404;-74
2021/05/16 02:01:43;;;;;;;26.88;5.45;;;11.60;99.90;;;;;;4959635;28;20034;-74
2021/05/16 02:04:10;;;;;;;24.58;5.13;;;11.60;99.90;;;;;;4964683;28;20114;-74
2021/05/16 02:06:36;;;;;;;22.73;5.85;;;11.50;99.90;;;;;;4960768;28;20026;-72
2021/05/16 02:09:01;;;;;;;22.55;4.80;;;11.40;99.90;;;;;;4967559;28;20027;-71
2021/05/16 02:11:27;;;;;;;28.58;5.88;;;11.50;99.90;;;;;;4965545;28;20030;-71
2021/05/16 02:13:53;;;;;;;22.70;4.95;;;11.40;99.90;;;;;;4969815;28;20102;-71
2021/05/16 02:16:18;;;;;;;29.17;5.03;;;11.40;99.90;;;;;;4967650;28;20081;-72
2021/05/16 02:18:44;;;;;;;25.17;5.82;;;11.30;99.90;;;;;;4965850;28;20090;-71
2021/05/16 02:21:10;;;;;;;30.00;5.70;;;11.30;99.90;;;;;;4965935;28;20029;-71
2021/05/16 02:23:40;;;;;;;18.15;5.38;;;11.20;99.90;;;;;;4973563;28;20031;-71
2021/05/16 02:26:07;;;;;;;26.05;4.90;;;11.20;99.90;;;;;;4966093;28;20033;-72
2021/05/16 02:28:33;;;;;;;25.40;5.35;;;11.30;99.90;;;;;;4970341;28;20050;-71
2021/05/16 02:31:08;;;;;;;24.70;5.30;;;11.20;99.90;;;;;;4964174;28;20162;-72
2021/05/16 02:33:34;;;;;;;25.58;5.22;;;11.20;99.90;;;;;;4961393;28;20015;-71
2021/05/16 02:35:59;;;;;;;27.33;4.85;;;11.20;99.90;;;;;;4961203;28;20081;-76
2021/05/16 02:38:25;;;;;;;17.00;4.90;;;11.40;99.90;;;;;;4960954;28;20194;-72
2021/05/16 02:40:51;;;;;;;20.88;4.55;;;11.50;99.90;;;;;;4960820;28;20434;-72
2021/05/16 02:43:16;;;;;;;21.23;4.60;;;11.50;99.90;;;;;;4959749;28;20082;-71
2021/05/16 02:45:42;;;;;;;21.45;4.57;;;11.50;99.90;;;;;;4961603;28;20102;-72
2021/05/16 02:48:07;;;;;;;16.90;4.55;;;11.60;99.90;;;;;;4961818;28;20464;-71
2021/05/16 02:50:33;;;;;;;26.88;6.05;;;11.70;99.90;;;;;;4958454;28;20468;-71
2021/05/16 02:52:58;;;;;;;23.00;5.38;;;11.70;99.90;;;;;;4964263;28;20630;-71
2021/05/16 02:55:24;;;;;;;25.10;5.03;;;11.60;99.90;;;;;;4964124;28;20022;-71
2021/05/16 02:57:50;;;;;;;24.73;5.40;;;11.70;99.90;;;;;;4966039;28;20048;-72
2021/05/16 03:00:16;;;;;;;26.67;4.95;;;11.70;99.90;;;;;;4967299;28;20066;-71
2021/05/16 03:02:41;;;;;;;17.63;4.13;;;11.90;99.90;;;;;;4962470;28;20384;-72
2021/05/16 03:05:07;;;;;;;15.23;4.38;;;11.80;99.90;;;;;;4963421;28;20023;-72
2021/05/16 03:07:33;;;;;;;16.25;4.40;;;11.80;99.90;;;;;;4967375;28;20015;-71
2021/05/16 03:09:59;;;;;;;21.05;4.68;;;11.80;99.90;;;;;;4965308;28;20611;-70
2021/05/16 03:12:24;;;;;;;21.08;5.25;;;11.80;99.90;;;;;;4960922;28;20027;-72
2021/05/16 03:14:50;;;;;;;24.92;5.35;;;11.80;99.90;;;;;;4966197;28;20395;-72
2021/05/16 03:17:15;;;;;;;17.63;4.28;;;11.80;99.90;;;;;;4968926;28;20053;-71
2021/05/16 03:19:41;;;;;;;22.85;5.20;;;11.90;99.90;;;;;;4966619;28;20499;-71
2021/05/16 03:22:09;;;;;;;21.52;4.32;;;12.00;99.90;;;;;;4964551;28;20487;-75
2021/05/16 03:24:36;;;;;;;20.98;4.75;;;12.00;99.90;;;;;;4965008;28;20027;-72
2021/05/16 03:27:02;;;;;;;18.27;5.78;;;12.00;99.90;;;;;;4963270;28;20023;-72
2021/05/16 03:29:31;;;;;;;26.48;5.72;;;12.00;99.90;;;;;;4964247;28;20031;-72
2021/05/16 03:31:56;;;;;;;16.92;4.30;;;12.00;99.90;;;;;;4967810;28;20046;-73
2021/05/16 03:34:22;;;;;;;19.08;5.22;;;11.90;99.90;;;;;;4961529;28;20522;-71
2021/05/16 03:36:48;;;;;;;15.70;4.90;;;11.90;99.90;;;;;;4962577;28;20023;-71
2021/05/16 03:39:13;;;;;;;21.00;5.65;;;11.80;99.90;;;;;;4964885;28;20295;-71
2021/05/16 03:41:39;;;;;;;23.83;5.03;;;11.70;99.90;;;;;;4965522;28;20027;-73
2021/05/16 03:44:05;;;;;;;25.92;6.13;;;11.60;99.90;;;;;;4968216;28;20106;-72
2021/05/16 03:46:30;;;;;;;22.45;4.70;;;11.60;99.90;;;;;;4964705;28;20082;-71
2021/05/16 03:48:56;;;;;;;20.88;5.00;;;11.60;99.90;;;;;;4963093;28;20027;-71
2021/05/16 03:51:22;;;;;;;21.30;4.88;;;11.70;99.90;;;;;;4960775;28;20038;-72
2021/05/16 03:53:47;;;;;;;17.83;5.30;;;11.80;99.90;;;;;;4964388;28;20019;-71
2021/05/16 03:56:13;;;;;;;22.38;5.25;;;11.80;99.90;;;;;;4963599;28;20035;-71
2021/05/16 03:58:38;;;;;;;18.33;5.35;;;11.80;99.90;;;;;;4966295;28;20482;-73
2021/05/16 04:01:04;;;;;;;20.15;5.00;;;11.80;99.90;;;;;;4968458;28;20081;-72
2021/05/16 04:03:30;;;;;;;24.60;5.65;;;11.80;99.90;;;;;;4960986;28;20023;-72
2021/05/16 04:05:56;;;;;;;19.73;5.85;;;11.80;99.90;;;;;;4964190;28;20019;-72
2021/05/16 04:08:21;;;;;;;21.77;5.65;;;11.80;99.90;;;;;;4964137;28;20384;-74
2021/05/16 04:10:47;;;;;;;16.42;5.35;;;11.90;99.90;;;;;;4967158;28;20027;-75
2021/05/16 04:13:12;;;;;;;18.67;4.82;;;11.90;99.90;;;;;;4961969;28;20022;-74
2021/05/16 04:15:38;;;;;;;17.50;5.40;;;11.90;99.90;;;;;;4966300;28;20035;-74
2021/05/16 04:18:04;;;;;;;19.35;5.38;;;11.90;99.90;;;;;;4966675;28;20031;-75
2021/05/16 04:20:31;;;;;;;15.68;5.20;;;12.00;99.90;;;;;;4962677;28;20035;-72
2021/05/16 04:22:59;;;;;;;28.48;6.07;;;12.00;99.90;;;;;;4963733;28;20027;-74
2021/05/16 04:25:25;;;;;;;26.00;6.28;;;12.00;99.90;;;;;;4963043;28;20070;-74
2021/05/16 04:27:51;;;;;;;24.80;6.00;;;12.10;99.90;;;;;;4963613;28;20055;-72
2021/05/16 04:30:17;;;;;;;19.23;4.80;;;12.10;99.90;;;;;;4963938;28;20020;-74
2021/05/16 04:32:42;;;;;;;18.25;4.90;;;12.10;99.90;;;;;;4967758;28;20023;-72
2021/05/16 04:35:08;;;;;;;21.05;5.35;;;12.10;99.90;;;;;;4962212;28;20015;-74
2021/05/16 04:37:34;;;;;;;18.73;4.97;;;12.20;99.90;;;;;;4961414;28;20049;-73
2021/05/16 04:39:59;;;;;;;17.30;5.35;;;12.10;99.90;;;;;;4964763;28;20026;-76
2021/05/16 04:42:25;;;;;;;21.80;4.50;;;12.20;99.90;;;;;;4980662;28;20494;-75
2021/05/16 04:44:51;;;;;;;14.65;5.18;;;12.10;99.90;;;;;;4983673;28;20026;-73
2021/05/16 04:47:16;;;;;;;21.00;4.65;;;12.10;99.90;;;;;;4978464;28;20031;-75
2021/05/16 04:49:42;;;;;;;20.25;4.57;;;12.10;99.90;;;;;;4977556;28;20562;-77
2021/05/16 04:52:09;;;;;;;22.42;5.70;;;12.10;99.90;;;;;;4983069;28;20442;-71
2021/05/16 04:54:34;;;;;;;14.38;4.22;;;12.00;99.90;;;;;;4979104;28;20022;-71
2021/05/16 04:57:00;;;;;;;18.60;5.30;;;12.10;99.90;;;;;;4974973;28;20042;-70
2021/05/16 04:59:26;;;;;;;19.75;4.82;;;12.10;99.90;;;;;;4979042;28;20026;-71
2021/05/16 05:01:51;;;;;;;14.80;4.20;;;12.10;99.90;;;;;;4977297;28;20024;-75
2021/05/16 05:04:17;;;;;;;20.02;4.65;;;11.90;99.90;;;;;;4978315;28;20471;-72
2021/05/16 05:06:43;;;;;;;14.75;4.38;;;12.00;99.90;;;;;;4978636;28;20026;-71
2021/05/16 05:09:09;;;;;;;19.63;5.20;;;11.90;99.90;;;;;;4978565;28;20050;-72
2021/05/16 05:11:35;;;;;;;16.30;5.03;;;11.80;99.90;;;;;;4979460;28;20073;-71
2021/05/16 05:14:01;;;;;;;19.95;5.10;;;11.80;99.90;;;;;;4984169;28;20094;-72
2021/05/16 05:16:27;;;;;;;25.80;5.88;;;11.80;99.90;;;;;;4972748;28;20141;-72
2021/05/16 05:18:52;;;;;;;23.95;4.78;;;11.80;99.90;;;;;;4978858;28;20019;-72
2021/05/16 05:21:18;;;;;;;21.83;5.07;;;11.80;99.90;;;;;;4975864;28;20506;-72
2021/05/16 05:23:44;;;;;;;22.50;5.57;;;11.70;99.90;;;;;;4975748;28;20030;-74
2021/05/16 05:26:09;;;;;;;22.33;4.63;;;11.80;99.90;;;;;;4981056;28;20468;-72
2021/05/16 05:28:35;;;;;;;28.30;5.53;;;11.90;99.90;;;;;;4979493;28;20472;-72
2021/05/16 05:31:01;;;;;;;24.38;5.45;;;11.90;99.90;;;;;;4977759;28;20038;-73
2021/05/16 05:33:27;;;;;;;20.35;4.70;;;11.90;99.90;;;;;;4976161;28;20023;-73
2021/05/16 05:35:53;;;;;;;19.17;4.25;;;11.90;99.90;;;;;;4971588;28;20022;-72
2021/05/16 05:38:20;;;;;;;24.58;5.05;;;12.00;99.90;;;;;;4973245;28;20062;-72
2021/05/16 05:40:45;;;;;;;21.02;4.88;;;12.10;99.90;;;;;;4969323;28;20041;-71
2021/05/16 05:43:11;;;;;;;16.02;4.75;;;12.10;99.90;;;;;;4974502;28;20535;-71
2021/05/16 05:45:37;;;;;;;26.15;4.85;;;12.10;99.90;;;;;;4979044;28;20102;-72
2021/05/16 05:48:04;;;;;;;21.70;5.47;;;12.10;99.90;;;;;;4981740;28;20513;-71
2021/05/16 05:50:30;;;;;;;21.98;5.43;;;12.10;99.90;;;;;;4978731;28;20604;-70
2021/05/16 05:52:58;;;;;;;19.45;4.65;;;12.20;99.90;;;;;;4977024;28;20085;-73
2021/05/16 05:55:24;;;;;;;16.63;4.47;;;12.20;99.90;;;;;;4970226;28;20131;-72
2021/05/16 05:57:49;;;;;;;18.17;5.88;;;12.20;99.90;;;;;;4976075;28;20538;-73
2021/05/16 06:00:15;;;;;;;26.42;6.30;;;12.20;99.90;;;;;;4977991;28;20033;-73
2021/05/16 06:02:41;;;;;;;18.02;6.22;;;12.20;99.90;;;;;;4973632;28;20023;-71
2021/05/16 06:05:08;;;;;;;26.08;4.57;;;12.30;99.90;;;;;;4976312;28;20037;-73
2021/05/16 06:07:33;;;;;;;22.15;4.97;;;12.30;99.90;;;;;;4976460;28;20019;-73
2021/05/16 06:09:59;;;;;;;20.00;6.03;;;12.30;99.90;;;;;;4981510;28;20085;-75
2021/05/16 06:12:25;;;;;;;20.23;5.10;;;12.40;99.90;;;;;;4975390;28;20025;-72
2021/05/16 06:14:53;;;;;;;17.55;5.65;;;12.40;99.90;;;;;;4975656;28;20041;-72
2021/05/16 06:17:19;;;;;;;17.55;5.32;;;12.40;99.90;;;;;;4975175;28;20046;-71
2021/05/16 06:19:44;;;;;;;17.02;5.63;;;12.50;99.90;;;;;;4979235;28;20380;-71
2021/05/16 06:22:13;;;;;;;15.82;5.65;;;12.60;99.90;;;;;;4977130;28;20117;-71
2021/05/16 06:24:39;;;;;;;19.70;7.15;;;12.70;99.90;;;;;;4975675;28;20018;-75
2021/05/16 06:27:05;;;;;;;18.90;6.30;;;12.80;99.90;;;;;;4966088;28;20480;-71
2021/05/16 06:29:31;;;;;;;16.63;7.15;;;12.90;99.90;;;;;;4962917;28;20469;-71
2021/05/16 06:31:56;;;;;;;26.20;7.97;;;13.00;99.90;;;;;;4972527;28;20030;-70
2021/05/16 06:34:22;;;;;;;19.50;6.50;;;13.10;99.90;;;;;;4972878;28;21093;-72
2021/05/16 06:36:47;;;;;;;29.15;7.43;;;13.10;99.90;;;;;;4958876;28;20125;-71
2021/05/16 06:39:13;;;;;;;22.73;7.88;;;13.10;99.90;;;;;;4961944;28;20023;-72
2021/05/16 06:41:38;;;;;;;22.83;7.47;;;13.20;99.90;;;;;;4967010;28;20386;-72
2021/05/16 06:44:04;;;;;;;23.63;7.80;;;13.40;99.90;;;;;;4963262;28;20033;-77
2021/05/16 06:46:30;;;;;;;18.80;7.15;;;13.40;99.90;;;;;;4965028;28;20022;-71
2021/05/16 06:48:56;;;;;;;24.50;7.93;;;13.60;99.90;;;;;;4961499;28;20030;-71
2021/05/16 06:51:22;;;;;;;29.83;7.60;;;13.60;99.90;;;;;;4975246;28;20098;-75
2021/05/16 06:53:48;;;;;;;22.45;6.88;;;13.70;99.90;;;;;;4985075;28;20017;-72
2021/05/16 06:56:14;;;;;;;20.63;6.28;;;13.80;99.90;;;;;;4975344;28;20034;-72
2021/05/16 06:58:41;;;;;;;22.20;7.00;;;13.80;99.90;;;;;;4978683;28;20054;-75
2021/05/16 07:01:07;;;;;;;19.38;6.22;;;13.80;99.90;;;;;;4969169;28;20038;-76
2021/05/16 07:03:35;;;;;;;19.85;6.38;;;13.80;99.90;;;;;;4977100;28;20035;-72
2021/05/16 07:06:01;;;;;;;19.73;5.93;;;13.80;99.90;;;;;;4974269;28;20023;-76
2021/05/16 07:08:26;;;;;;;24.33;7.03;;;13.70;99.90;;;;;;4976906;28;20026;-72
2021/05/16 07:10:52;;;;;;;20.80;6.40;;;13.80;99.90;;;;;;4967198;28;20019;-74
2021/05/16 07:13:17;;;;;;;23.42;7.63;;;13.80;99.90;;;;;;4973009;28;20471;-74
2021/05/16 07:15:43;;;;;;;24.80;5.80;;;13.80;99.90;;;;;;4968801;28;20023;-73
2021/05/16 07:18:09;;;;;;;26.65;6.40;;;13.80;99.90;;;;;;4972970;28;20355;-74
2021/05/16 07:20:34;;;;;;;19.73;6.03;;;13.80;99.90;;;;;;4968980;28;20368;-75
2021/05/16 07:23:00;;;;;;;25.92;7.22;;;13.80;99.90;;;;;;4972436;28;20322;-75
2021/05/16 07:25:25;;;;;;;24.50;5.82;;;13.90;99.90;;;;;;4971673;28;20035;-75
2021/05/16 07:27:52;;;;;;;23.83;6.38;;;13.80;99.90;;;;;;4973112;28;20379;-72
2021/05/16 07:30:18;;;;;;;31.70;6.93;;;13.80;99.90;;;;;;4970371;28;20099;-76
2021/05/16 07:32:44;;;;;;;19.80;5.72;;;13.90;99.90;;;;;;4973125;28;20100;-73
2021/05/16 07:35:10;;;;;;;22.08;5.93;;;14.00;99.90;;;;;;4971006;28;20019;-74
2021/05/16 07:37:37;;;;;;;27.77;6.30;;;14.00;99.90;;;;;;4974096;28;20064;-75
2021/05/16 07:40:04;;;;;;;24.25;6.10;;;14.10;99.90;;;;;;4972911;28;20034;-72
2021/05/16 07:42:29;;;;;;;20.50;5.78;;;14.20;99.90;;;;;;4976318;28;20041;-73
2021/05/16 07:44:55;;;;;;;19.45;5.63;;;14.20;99.90;;;;;;4974511;28;20019;-75
2021/05/16 07:47:21;;;;;;;21.42;5.57;;;14.20;99.90;;;;;;4976690;28;20145;-74
2021/05/16 07:49:46;;;;;;;24.88;5.38;;;14.30;99.90;;;;;;4976744;28;20041;-76
2021/05/16 07:52:12;;;;;;;23.80;5.25;;;14.40;99.90;;;;;;4977157;28;20015;-76
2021/05/16 07:54:38;;;;;;;22.33;5.40;;;14.40;99.90;;;;;;4976447;28;20031;-74
2021/05/16 07:57:05;;;;;;;23.15;5.60;;;14.50;99.90;;;;;;4966979;28;20046;-76
2021/05/16 07:59:33;;;;;;;25.25;6.15;;;14.40;99.90;;;;;;4970887;28;20031;-74
2021/05/16 08:01:59;;;;;;;18.45;4.93;;;14.40;99.90;;;;;;4973876;28;20043;-75
2021/05/16 08:04:25;;;;;;;25.65;5.50;;;14.50;99.90;;;;;;4976406;28;20023;-71
2021/05/16 08:06:50;;;;;;;17.90;5.20;;;14.40;99.90;;;;;;4973082;28;20361;-69
2021/05/16 08:09:16;;;;;;;18.92;4.93;;;14.50;99.90;;;;;;4969594;28;20034;-74
2021/05/16 08:11:41;;;;;;;18.70;4.30;;;14.50;99.90;;;;;;4975129;28;20030;-78
2021/05/16 08:14:07;;;;;;;13.55;3.95;;;14.70;99.90;;;;;;4975509;28;20055;-77
2021/05/16 08:16:34;;;;;;;20.73;4.53;;;14.70;99.90;;;;;;4968042;28;20035;-78
2021/05/16 08:19:00;;;;;;;20.17;4.28;;;14.70;99.90;;;;;;4974194;28;20030;-77
2021/05/16 08:21:25;;;;;;;15.55;3.65;;;14.70;99.90;;;;;;4976031;28;20476;-77
2021/05/16 08:23:51;;;;;;;15.55;3.85;;;14.70;99.90;;;;;;4976341;28;20545;-76
2021/05/16 08:26:17;;;;;;;21.48;3.83;;;14.60;99.90;;;;;;4976184;28;20019;-78
2021/05/16 08:28:42;;;;;;;18.33;4.60;;;14.60;99.90;;;;;;4974574;28;20142;-80
2021/05/16 08:31:08;;;;;;;21.75;3.83;;;14.50;99.90;;;;;;4975647;28;20037;-77
2021/05/16 08:33:33;;;;;;;19.92;5.13;;;14.40;99.90;;;;;;4976346;28;20463;-76
2021/05/16 08:35:59;;;;;;;17.85;4.43;;;14.40;99.90;;;;;;4967850;28;20062;-77
2021/05/16 08:38:24;;;;;;;20.05;4.32;;;14.50;99.90;;;;;;4975883;28;20117;-76
2021/05/16 08:40:50;;;;;;;25.17;4.60;;;14.50;99.90;;;;;;4974629;28;20027;-78
2021/05/16 08:43:16;;;;;;;25.13;4.30;;;14.70;99.90;;;;;;4962581;28;20026;-74
2021/05/16 08:45:42;;;;;;;24.30;5.53;;;14.80;99.90;;;;;;4976456;28;20074;-76
2021/05/16 08:48:08;;;;;;;19.27;4.57;;;14.80;99.90;;;;;;4977616;28;20035;-74
2021/05/16 08:50:34;;;;;;;19.27;5.05;;;15.00;99.90;;;;;;4978787;28;20126;-77
2021/05/16 08:53:00;;;;;;;14.63;3.58;;;15.10;99.90;;;;;;4969690;28;20070;-71
2021/05/16 08:55:27;;;;;;;18.52;3.22;;;15.10;99.90;;;;;;4967334;28;20023;-77
2021/05/16 08:57:53;;;;;;;17.85;3.85;;;15.20;99.90;;;;;;4982492;28;20053;-77
2021/05/16 09:00:21;;;;;;;13.90;2.95;;;15.20;99.90;;;;;;4978793;28;20043;-77
2021/05/16 09:03:10;;;;;;;14.15;2.63;;;15.40;99.90;;;;;;4975368;28;20034;-76
2021/05/16 09:05:41;;;;;;;14.23;2.88;;;15.70;99.90;;;;;;4980290;28;20357;-76
2021/05/16 09:08:16;;;;;;;10.55;3.13;;;15.90;99.90;;;;;;4982965;28;20062;-76
2021/05/16 09:10:43;;;;;;;11.57;2.40;;;15.80;99.90;;;;;;4978048;28;20472;-75
2021/05/16 09:13:16;;;;;;;13.88;2.92;;;15.80;99.90;;;;;;4975898;28;20054;-75
2021/05/16 09:16:02;;;;;;;;;;;15.70;99.90;;;;;;4975629;28;20035;-76
2021/05/16 09:18:54;;;;;;;11.93;2.45;;;15.50;99.90;;;;;;4974510;28;19914;-80
2021/05/16 09:21:31;;;;;;;6.88;2.05;;;15.50;99.90;;;;;;4976022;28;20035;-78
2021/05/16 09:24:00;;;;;;;10.23;2.88;;;15.30;99.90;;;;;;4977040;28;20022;-76
2021/05/16 09:26:26;;;;;;;13.10;2.50;;;15.30;99.90;;;;;;4980351;28;20503;-78
2021/05/16 09:28:53;;;;;;;16.02;3.30;;;15.40;99.90;;;;;;4973290;28;20038;-77
2021/05/16 09:31:35;;;;;;;9.27;2.65;;;15.80;99.90;;;;;;4978252;28;20019;-79
2021/05/16 09:34:05;;;;;;;14.43;3.40;;;15.90;99.90;;;;;;4970829;28;20100;-75
2021/05/16 09:36:34;;;;;;;13.00;3.15;;;15.90;99.90;;;;;;4971946;28;20177;-78
2021/05/16 09:39:17;;;;;;;15.90;3.67;;;16.00;99.90;;;;;;4977310;28;20447;-77
2021/05/16 09:41:54;;;;;;;;;;;16.10;99.90;;;;;;4975562;28;20031;-76
2021/05/16 09:44:32;;;;;;;19.38;3.83;;;16.30;99.90;;;;;;4976865;28;19913;-75
2021/05/16 09:47:12;;;;;;;13.38;3.63;;;16.50;99.90;;;;;;4978357;28;20066;-79
2021/05/16 09:49:40;;;;;;;13.02;3.80;;;16.50;99.90;;;;;;4977124;28;20460;-73
2021/05/16 09:52:27;;;;;;;15.02;3.65;;;16.40;99.90;;;;;;4978630;28;20096;-75
2021/05/16 09:55:06;;;;;;;17.48;4.30;;;16.50;99.90;;;;;;4974057;28;20094;-74
2021/05/16 09:57:34;;;;;;;11.85;3.67;;;16.50;99.90;;;;;;4969142;28;20043;-76
2021/05/16 10:00:01;;;;;;;11.77;3.35;;;16.50;99.90;;;;;;4976893;28;20037;-77
2021/05/16 10:02:28;;;;;;;9.82;3.38;;;16.60;99.90;;;;;;4977943;28;20015;-75
2021/05/16 10:04:55;;;;;;;15.70;3.60;;;16.50;99.90;;;;;;4970919;28;20019;-75
2021/05/16 10:07:22;;;;;;;12.30;3.25;;;16.50;99.90;;;;;;4974849;28;20085;-77
2021/05/16 10:09:50;;;;;;;13.35;3.00;;;16.40;99.90;;;;;;4976996;28;20110;-78
2021/05/16 10:12:18;;;;;;;20.20;4.25;;;16.40;99.90;;;;;;4953474;28;20034;-75
2021/05/16 10:14:47;;;;;;;16.80;4.60;;;16.40;99.90;;;;;;4971296;28;20097;-74
2021/05/16 10:17:15;;;;;;;13.07;3.72;;;16.50;99.90;;;;;;4969685;28;20093;-78
2021/05/16 10:19:42;;;;;;;18.15;3.70;;;16.70;99.90;;;;;;4976654;28;20111;-73
2021/05/16 10:22:08;;;;;;;9.55;3.40;;;16.90;99.90;;;;;;4966709;28;20038;-72
2021/05/16 10:24:40;;;;;;;8.65;2.95;;;17.10;99.90;;;;;;4967869;28;20515;-75
2021/05/16 10:27:23;;;;;;;11.25;3.25;;;17.30;99.90;;;;;;4963128;28;20031;-76
2021/05/16 10:29:52;;;;;;;16.02;2.58;;;17.50;99.90;;;;;;4967020;28;20022;-70
2021/05/16 10:32:24;;;;;;;10.57;2.80;;;17.70;99.90;;;;;;4968343;28;20026;-72
2021/05/16 10:35:10;;;;;;;14.95;2.75;;;17.70;99.90;;;;;;4958644;28;20030;-70
2021/05/16 10:37:40;;;;;;;8.60;3.13;;;17.60;99.90;;;;;;4959698;28;20365;-75
2021/05/16 10:40:25;;;;;;;15.82;3.25;;;17.50;99.90;;;;;;4956258;28;20109;-76
2021/05/16 10:43:02;;;;;;;8.25;2.67;;;17.50;99.90;;;;;;4955489;28;20515;-75
2021/05/16 10:45:39;;;;;;;9.05;2.83;;;17.50;99.90;;;;;;4956968;28;20376;-75
2021/05/16 10:48:09;;;;;;;8.48;3.00;;;17.90;99.90;;;;;;4963190;28;20102;-76
2021/05/16 10:50:39;;;;;;;9.55;2.78;;;18.10;99.90;;;;;;4959877;28;20047;-73
2021/05/16 10:53:10;;;;;;;10.95;2.45;;;18.20;99.90;;;;;;4956157;28;20042;-73
2021/05/16 10:55:37;;;;;;;7.63;2.20;;;18.30;99.90;;;;;;4960711;28;20119;-74
2021/05/16 10:58:04;;;;;;;9.35;2.10;;;18.50;99.90;;;;;;4969527;28;20026;-73
2021/05/16 11:00:43;;;;;;;9.80;1.88;;;18.50;99.90;;;;;;4956999;28;20421;-72
2021/05/16 11:03:11;;;;;;;6.95;1.98;;;18.70;99.90;;;;;;4961361;28;20027;-74
2021/05/16 11:05:53;;;;;;;6.18;2.05;;;18.60;99.90;;;;;;4968377;28;20027;-74
2021/05/16 11:08:19;;;;;;;8.18;2.55;;;18.50;99.90;;;;;;4963455;28;20058;-74
2021/05/16 11:10:52;;;;;;;11.95;3.25;;;18.40;99.90;;;;;;4965424;28;20487;-73
2021/05/16 11:13:18;;;;;;;10.43;2.50;;;18.40;99.90;;;;;;4967578;28;20530;-74
2021/05/16 11:15:52;;;;;;;8.90;2.78;;;18.50;99.90;;;;;;4974575;28;20023;-74
2021/05/16 11:18:19;;;;;;;8.23;2.10;;;18.30;99.90;;;;;;4967855;28;20042;-73
2021/05/16 11:21:01;;;;;;;7.22;2.40;;;18.30;99.90;;;;;;4970888;28;20134;-71
2021/05/16 11:23:32;;;;;;;9.05;2.25;;;18.40;99.90;;;;;;4968905;28;20157;-72
2021/05/16 11:26:02;;;;;;;8.07;3.30;;;18.20;99.90;;;;;;4964497;28;20558;-74
2021/05/16 11:28:30;;;;;;;9.05;2.30;;;18.20;99.90;;;;;;4972451;28;20027;-73
2021/05/16 11:30:57;;;;;;;8.77;2.55;;;18.20;99.90;;;;;;4970122;28;20440;-71
2021/05/16 11:33:34;;;;;;;11.35;3.30;;;18.10;99.90;;;;;;4968097;28;20102;-71
2021/05/16 11:36:11;;;;;;;9.38;3.13;;;18.00;99.90;;;;;;4971093;28;20027;-73
2021/05/16 11:38:42;;;;;;;8.57;2.80;;;17.90;99.90;;;;;;4975176;28;20038;-73
2021/05/16 11:41:41;;;;;;;13.57;3.53;;;17.80;99.90;;;;;;4974301;28;20106;-73
2021/05/16 11:44:09;;;;;;;11.48;3.60;;;17.70;99.90;;;;;;4974911;28;20146;-72
2021/05/16 11:46:43;;;;;;;9.50;2.63;;;17.60;99.90;;;;;;4974415;28;20064;-73
2021/05/16 11:49:11;;;;;;;8.35;3.28;;;17.60;99.90;;;;;;4971540;28;20458;-72
2021/05/16 11:51:37;;;;;;;6.68;3.13;;;17.50;99.90;;;;;;4976679;28;20062;-72
2021/05/16 11:54:07;;;;;;;10.95;3.60;;;17.50;99.90;;;;;;4977034;28;20042;-73
2021/05/16 11:56:37;;;;;;;9.75;2.63;;;17.50;99.90;;;;;;4970918;28;20030;-73
2021/05/16 11:59:05;;;;;;;6.68;2.40;;;17.30;99.90;;;;;;4970683;28;20042;-71
2021/05/16 12:01:35;;;;;;;8.13;2.40;;;17.30;99.90;;;;;;4965750;28;20038;-73
2021/05/16 12:04:17;;;;;;;4.85;1.60;;;17.30;99.90;;;;;;4971537;28;20050;-72
2021/05/16 12:06:53;;;;;;;9.52;1.75;;;17.50;99.90;;;;;;4973968;28;20019;-72
2021/05/16 12:09:24;;;;;;;7.72;1.33;;;17.80;99.90;;;;;;4974164;28;20027;-72
2021/05/16 12:11:51;;;;;;;5.85;1.40;;;17.90;99.90;;;;;;4973980;28;20364;-72
2021/05/16 12:14:22;;;;;;;8.40;1.80;;;18.00;99.90;;;;;;4972555;28;20031;-72
2021/05/16 12:16:58;;;;;;;2.90;0.80;;;18.10;99.90;;;;;;4967108;28;20117;-73
2021/05/16 12:19:27;;;;;;;2.97;1.13;;;17.80;99.90;;;;;;4966476;28;20027;-70
2021/05/16 12:21:55;;;;;;;3.50;0.82;;;17.80;99.90;;;;;;4973498;28;20387;-72
2021/05/16 12:24:25;;;;;;;5.53;1.00;;;17.80;99.90;;;;;;4978626;28;20045;-73
2021/05/16 12:26:52;;;;;;;4.50;1.00;;;17.90;99.90;;;;;;4967100;28;20484;-70
2021/05/16 12:29:19;;;;;;;3.78;1.20;;;18.10;99.90;;;;;;4971420;28;20035;-71
2021/05/16 12:31:45;;;;;;;6.00;1.52;;;18.40;99.90;;;;;;4976457;28;20014;-73
2021/05/16 12:34:13;;;;;;;5.47;1.80;;;18.50;99.90;;;;;;4974686;28;20107;-70
2021/05/16 12:36:52;;;;;;;5.63;1.55;;;18.90;99.90;;;;;;4968472;28;20134;-73
2021/05/16 12:39:40;;;;;;;5.00;1.15;;;19.00;99.90;;;;;;4967129;28;20080;-74
2021/05/16 12:42:37;;;;;;;7.57;1.33;;;19.10;99.90;;;;;;4966637;28;20023;-71